Time;durP1;ratioP1;P1;durP2;ratioP2;P2;SDS_P1;SDS_P2;PMS_P1;PMS_P2;Temp;Humidity;BMP_temperature;BMP_pressure;BME280_temperature;BME280_humidity;BME280_pressure;Samples;Min_cycle;Max_cycle;Signal;HPM_P1;HPM_P2
2023/10/14 00:00:58;;;;;;;7.90;4.90;;;;;;;7.60;100.00;99909.17;106654;1254;61831;-74
2023/10/14 00:03:27;;;;;;;7.70;4.00;;;;;;;7.66;100.00;99904.70;106309;1253;61443;-73
2023/10/14 00:05:55;;;;;;;8.40;3.90;;;;;;;7.72;100.00;99903.73;106588;1254;74671;-74
2023/10/14 00:08:26;;;;;;;5.20;3.30;;;;;;;7.78;100.00;99906.95;106589;1250;71156;-73
2023/10/14 00:10:53;;;;;;;5.80;3.90;;;;;;;7.86;100.00;99912.93;106614;1250;71183;-73
2023/10/14 00:13:19;;;;;;;6.20;4.10;;;;;;;7.96;100.00;99916.23;106913;1252;61241;-73
2023/10/14 00:15:46;;;;;;;9.00;4.40;;;;;;;8.08;100.00;99916.73;106199;1254;61257;-73
2023/10/14 00:18:13;;;;;;;8.90;4.10;;;;;;;8.16;100.00;99919.73;106900;1255;74357;-72
2023/10/14 00:20:40;;;;;;;9.70;4.10;;;;;;;8.18;100.00;99920.90;107397;1252;70013;-74
2023/10/14 00:23:06;;;;;;;8.70;4.30;;;;;;;8.16;100.00;99916.07;107050;1254;72722;-74
2023/10/14 00:25:34;;;;;;;8.00;4.00;;;;;;;8.11;100.00;99915.46;106607;1250;61315;-74
2023/10/14 00:28:13;;;;;;;7.30;4.70;;;;;;;8.07;100.00;99912.74;106190;1250;61370;-74
2023/10/14 00:30:40;;;;;;;8.90;4.50;;;;;;;8.03;100.00;99909.14;106197;1253;74602;-72
2023/10/14 00:33:07;;;;;;;9.00;4.30;;;;;;;7.98;100.00;99905.58;106229;1250;71117;-73
2023/10/14 00:35:39;;;;;;;5.00;4.10;;;;;;;7.93;100.00;99905.65;106175;1251;72836;-74
2023/10/14 00:38:13;;;;;;;6.10;3.90;;;;;;;7.90;100.00;99898.37;106181;1250;62079;-73
2023/10/14 00:40:45;;;;;;;4.80;3.80;;;;;;;7.85;100.00;99893.91;106583;1250;61344;-72
2023/10/14 00:43:12;;;;;;;6.70;4.50;;;;;;;7.79;100.00;99890.34;106993;1250;74342;-71
2023/10/14 00:45:43;;;;;;;5.80;3.70;;;;;;;7.74;100.00;99885.55;107443;1252;69584;-74
2023/10/14 00:48:13;;;;;;;5.40;4.20;;;;;;;7.67;100.00;99885.83;106041;1251;72356;-73
2023/10/14 00:50:41;;;;;;;6.70;4.50;;;;;;;7.64;100.00;99885.01;106201;1250;61271;-74
2023/10/14 00:53:08;;;;;;;12.10;4.90;;;;;;;7.62;100.00;99880.50;106185;1254;60057;-73
2023/10/14 00:58:21;;;;;;;6.20;4.20;;;;;;;7.60;100.00;99876.00;106053;1250;71403;-73
2023/10/14 01:01:00;;;;;;;6.60;3.70;;;;;;;7.59;100.00;99873.91;106519;1250;72387;-74
2023/10/14 01:03:31;;;;;;;9.30;3.80;;;;;;;7.57;100.00;99865.92;106907;1250;61327;-74
2023/10/14 01:06:06;;;;;;;6.40;4.00;;;;;;;7.55;100.00;99861.08;106446;1253;61236;-74
2023/10/14 01:08:38;;;;;;;7.10;4.10;;;;;;;7.54;100.00;99851.49;107082;1250;74695;-73
2023/10/14 01:11:07;;;;;;;4.80;4.10;;;;;;;7.52;100.00;99846.45;106614;1250;71175;-74
2023/10/14 01:13:34;;;;;;;10.30;4.50;;;;;;;7.53;100.00;99850.80;106596;1250;71158;-74
2023/10/14 01:16:04;;;;;;;4.80;3.40;;;;;;;7.56;100.00;99848.48;106939;1250;61227;-74
2023/10/14 01:18:34;;;;;;;4.90;3.50;;;;;;;7.64;100.00;99845.20;106530;1250;61225;-74
2023/10/14 01:21:01;;;;;;;4.60;3.50;;;;;;;7.71;100.00;99840.20;107367;1250;73106;-74
2023/10/14 01:23:28;;;;;;;4.20;3.20;;;;;;;7.81;100.00;99832.85;106675;1250;71394;-74
2023/10/14 01:25:57;;;;;;;5.00;3.10;;;;;;;7.92;100.00;99825.66;107121;1253;72637;-73
2023/10/14 01:28:30;;;;;;;6.90;3.30;;;;;;;8.02;100.00;99829.33;106249;1250;61329;-74
2023/10/14 01:31:55;;;;;;;5.70;2.60;;;;;;;8.14;100.00;99825.23;107046;1250;61346;-75
2023/10/14 01:34:28;;;;;;;4.50;2.60;;;;;;;8.30;100.00;99819.16;106654;1250;74457;-74
2023/10/14 01:36:56;;;;;;;5.10;2.90;;;;;;;8.41;100.00;99823.66;106956;1250;71190;-73
2023/10/14 01:39:26;;;;;;;6.10;3.20;;;;;;;8.54;100.00;99827.42;109511;1250;72416;-74
2023/10/14 01:41:54;;;;;;;6.60;3.20;;;;;;;8.70;100.00;99828.13;109511;1250;60231;-75
2023/10/14 01:44:22;;;;;;;6.10;3.10;;;;;;;8.87;100.00;99827.06;109414;1250;58965;-73
2023/10/14 01:46:48;;;;;;;4.90;3.20;;;;;;;9.05;100.00;99821.04;109422;1254;73851;-74
2023/10/14 01:49:19;;;;;;;5.20;3.40;;;;;;;9.16;100.00;99820.98;107901;1251;70433;-74
2023/10/14 01:51:49;;;;;;;5.90;3.20;;;;;;;9.22;100.00;99819.26;108582;1250;72758;-74
2023/10/14 01:54:16;;;;;;;4.80;3.20;;;;;;;9.27;100.00;99813.34;109683;1250;59618;-72
2023/10/14 01:56:44;;;;;;;5.70;3.10;;;;;;;9.31;100.00;99814.31;106273;1254;61682;-74
2023/10/14 01:59:12;;;;;;;7.40;3.80;;;;;;;9.33;100.00;99813.91;106134;1255;75268;-73
2023/10/14 02:01:41;;;;;;;5.80;3.60;;;;;;;9.34;100.00;99814.05;105963;1250;71467;-73
2023/10/14 02:04:08;;;;;;;4.60;3.40;;;;;;;9.33;100.00;99811.83;106093;1251;72556;-73
2023/10/14 02:06:36;;;;;;;4.10;3.60;;;;;;;9.32;100.00;99812.19;107487;1254;61366;-73
2023/10/14 02:09:04;;;;;;;4.40;3.60;;;;;;;9.31;100.00;99810.10;105991;1250;61382;-73
2023/10/14 02:11:34;;;;;;;3.90;3.10;;;;;;;9.30;100.00;99811.52;106156;1250;73125;-73
2023/10/14 02:14:08;;;;;;;12.10;3.20;;;;;;;9.33;100.00;99816.02;106036;1255;71143;-73
2023/10/14 02:16:43;;;;;;;3.50;3.20;;;;;;;9.34;100.00;99818.45;106214;1250;72518;-74
2023/10/14 02:19:17;;;;;;;4.80;4.00;;;;;;;9.34;100.00;99815.11;106815;1250;61305;-74
2023/10/14 02:21:46;;;;;;;4.00;3.20;;;;;;;9.35;100.00;99808.79;106274;1255;61168;-74
2023/10/14 02:24:13;;;;;;;4.70;3.30;;;;;;;9.37;100.00;99805.95;106143;1250;74422;-73
2023/10/14 02:26:40;;;;;;;4.40;3.30;;;;;;;9.40;100.00;99806.91;106017;1250;70966;-73
2023/10/14 02:29:09;;;;;;;6.20;3.80;;;;;;;9.44;100.00;99814.86;106173;1250;72564;-72
2023/10/14 02:31:35;;;;;;;4.30;3.20;;;;;;;9.50;100.00;99816.27;106188;1250;61369;-74
2023/10/14 02:34:05;;;;;;;5.10;3.70;;;;;;;9.56;100.00;99812.11;106180;1250;61199;-73
2023/10/14 02:36:36;;;;;;;5.90;3.60;;;;;;;9.59;100.00;99808.89;106783;1250;74471;-74
2023/10/14 02:39:14;;;;;;;4.50;3.30;;;;;;;9.61;100.00;99802.68;106184;1250;71185;-74
2023/10/14 02:41:45;;;;;;;5.90;3.50;;;;;;;9.65;100.00;99796.98;106147;1250;71238;-73
2023/10/14 02:44:19;;;;;;;5.00;3.50;;;;;;;9.66;100.00;99793.26;107812;1250;61305;-73
2023/10/14 02:46:47;;;;;;;6.30;3.50;;;;;;;9.69;100.00;99791.29;106513;1254;61344;-73
2023/10/14 02:49:14;;;;;;;4.00;3.60;;;;;;;9.73;100.00;99787.30;106466;1250;74639;-74
2023/10/14 02:51:43;;;;;;;5.30;3.70;;;;;;;9.76;100.00;99784.96;106647;1251;71366;-74
2023/10/14 02:54:26;;;;;;;3.90;3.40;;;;;;;9.78;100.00;99781.95;105992;1250;72502;-74
2023/10/14 02:59:23;;;;;;;4.50;3.80;;;;;;;9.79;100.00;99778.40;107079;1250;61292;-72
2023/10/14 03:04:44;;;;;;;8.80;4.40;;;;;;;9.81;100.00;99764.33;106272;1254;69735;-73
2023/10/14 03:07:19;;;;;;;5.70;3.70;;;;;;;9.82;100.00;99757.29;106229;1250;72443;-73
2023/10/14 03:09:46;;;;;;;6.60;4.60;;;;;;;9.85;100.00;99758.95;106198;1254;61377;-74
2023/10/14 03:12:18;;;;;;;6.70;3.80;;;;;;;9.88;100.00;99753.63;107048;1251;61235;-73
2023/10/14 03:14:48;;;;;;;4.00;3.50;;;;;;;9.92;100.00;99748.61;106199;1250;75035;-73
2023/10/14 03:17:58;;;;;;;8.40;4.30;;;;;;;9.97;100.00;99739.52;106215;1250;71158;-74
2023/10/14 03:22:55;;;;;;;3.80;3.30;;;;;;;10.07;100.00;99725.05;107029;1250;61329;-72
2023/10/14 03:25:23;;;;;;;4.40;3.60;;;;;;;10.12;100.00;99720.53;106268;1250;61366;-74
2023/10/14 03:27:51;;;;;;;7.10;3.80;;;;;;;10.15;100.00;99717.27;107606;1251;73407;-72
2023/10/14 03:30:20;;;;;;;7.80;3.80;;;;;;;10.18;100.00;99715.23;106216;1249;70964;-73
2023/10/14 03:32:47;;;;;;;4.10;3.70;;;;;;;10.23;100.00;99715.99;106225;1250;72487;-74
2023/10/14 03:35:20;;;;;;;3.80;3.40;;;;;;;10.26;100.00;99718.19;106167;1250;61391;-73
2023/10/14 03:37:54;;;;;;;5.00;3.70;;;;;;;10.27;100.00;99715.35;107370;1251;60068;-75
2023/10/14 03:43:10;;;;;;;5.40;4.30;;;;;;;10.29;100.00;99716.51;106204;1250;70997;-73
2023/10/14 03:45:53;;;;;;;4.30;3.70;;;;;;;10.30;100.00;99716.14;106692;1254;72660;-73
2023/10/14 03:51:24;;;;;;;6.10;4.40;;;;;;;10.27;100.00;99716.59;105927;1250;61447;-73
2023/10/14 03:53:55;;;;;;;5.00;4.20;;;;;;;10.26;100.00;99719.95;106660;1255;74427;-73
2023/10/14 03:56:24;;;;;;;6.10;4.20;;;;;;;10.24;100.00;99723.15;106295;1250;70827;-73
2023/10/14 03:58:55;;;;;;;6.60;4.60;;;;;;;10.21;100.00;99718.86;108217;1250;74030;-74
2023/10/14 04:01:23;;;;;;;5.10;4.40;;;;;;;10.17;100.00;99717.39;106683;1255;61363;-74
2023/10/14 04:03:53;;;;;;;6.70;4.30;;;;;;;10.14;100.00;99714.69;107009;1250;61360;-74
2023/10/14 04:06:20;;;;;;;6.80;4.50;;;;;;;10.10;100.00;99712.52;107062;1250;74619;-73
2023/10/14 04:08:52;;;;;;;8.40;4.90;;;;;;;10.07;100.00;99709.63;105917;1252;1003512;-73
2023/10/14 04:11:35;;;;;;;6.60;5.20;;;;;;;10.03;100.00;99704.11;106187;1251;72331;-74
2023/10/14 04:14:03;;;;;;;4.90;4.40;;;;;;;10.01;100.00;99704.34;106184;1250;61465;-75
2023/10/14 04:19:22;;;;;;;6.50;4.50;;;;;;;10.00;100.00;99707.20;106099;1249;74741;-73
2023/10/14 04:21:53;;;;;;;4.90;4.40;;;;;;;9.99;100.00;99707.03;107395;1254;71133;-73
2023/10/14 04:24:31;;;;;;;11.00;4.90;;;;;;;10.03;100.00;99707.80;106149;1251;72512;-73
2023/10/14 04:27:29;;;;;;;5.40;4.80;;;;;;;10.08;100.00;99706.08;106535;1250;61350;-74
2023/10/14 04:30:11;;;;;;;5.70;4.50;;;;;;;10.13;100.00;99704.38;106200;1250;61288;-73
2023/10/14 04:35:38;;;;;;;7.00;5.00;;;;;;;10.19;100.00;99708.91;106230;1250;71427;-74
2023/10/14 04:38:16;;;;;;;6.50;5.00;;;;;;;10.23;100.00;99714.42;106141;1250;72405;-73
2023/10/14 04:40:53;;;;;;;6.80;5.80;;;;;;;10.28;100.00;99714.80;106291;1250;61731;-72
2023/10/14 04:43:49;;;;;;;7.50;5.60;;;;;;;10.33;100.00;99709.57;106566;1250;61676;-73
2023/10/14 04:48:49;;;;;;;8.10;6.30;;;;;;;10.46;100.00;99709.52;106225;1255;70873;-74
2023/10/14 04:51:18;;;;;;;9.20;6.50;;;;;;;10.52;100.00;99710.77;106223;1254;71229;-74
2023/10/14 04:53:46;;;;;;;9.90;6.70;;;;;;;10.59;100.00;99715.10;106332;1250;61257;-74
2023/10/14 04:56:21;;;;;;;18.10;7.20;;;;;;;10.65;100.00;99713.48;106240;1256;61625;-73
2023/10/14 04:58:52;;;;;;;10.10;6.60;;;;;;;10.74;100.00;99717.23;106155;1254;74446;-73
2023/10/14 05:01:19;;;;;;;13.80;7.00;;;;;;;10.82;100.00;99714.70;106645;1250;71027;-73
2023/10/14 05:03:50;;;;;;;10.20;7.30;;;;;;;10.89;100.00;99715.00;106316;1250;1003962;-73
2023/10/14 05:06:17;;;;;;;10.60;7.80;;;;;;;10.96;100.00;99707.76;106558;1251;62247;-77
2023/10/14 05:08:44;;;;;;;9.80;7.60;;;;;;;11.02;100.00;99713.02;107450;1252;61219;-73
2023/10/14 05:11:13;;;;;;;10.30;6.90;;;;;;;11.06;100.00;99709.87;107087;1254;74338;-74
2023/10/14 05:13:42;;;;;;;10.70;7.10;;;;;;;11.09;100.00;99711.17;107100;1254;71093;-73
2023/10/14 05:16:21;;;;;;;9.40;6.60;;;;;;;11.13;100.00;99711.77;107404;1250;72315;-74
2023/10/14 05:19:04;;;;;;;9.00;6.70;;;;;;;11.18;100.00;99709.66;106359;1250;61649;-75
2023/10/14 05:21:43;;;;;;;11.30;7.10;;;;;;;11.23;100.00;99715.27;106648;1250;61327;-73
2023/10/14 05:24:10;;;;;;;8.70;6.00;;;;;;;11.25;100.00;99713.10;106897;1254;74444;-74
2023/10/14 05:26:45;;;;;;;10.80;7.00;;;;;;;11.27;100.00;99716.20;106130;1251;70833;-73
2023/10/14 05:29:18;;;;;;;9.90;6.80;;;;;;;11.30;100.00;99706.64;107427;1255;71563;-74
2023/10/14 05:31:49;;;;;;;11.70;7.20;;;;;;;11.32;100.00;99692.31;106134;1251;61848;-74
2023/10/14 05:34:26;;;;;;;11.50;7.70;;;;;;;11.35;100.00;99676.57;107124;1250;60265;-73
2023/10/14 05:36:55;;;;;;;15.50;8.30;;;;;;;11.42;100.00;99671.60;106849;1251;73106;-75
2023/10/14 05:39:22;;;;;;;14.00;7.30;;;;;;;11.50;100.00;99669.20;106174;1250;71186;-74
2023/10/14 05:41:56;;;;;;;12.90;7.00;;;;;;;11.60;100.00;99669.55;106695;1250;72519;-74
2023/10/14 05:44:22;;;;;;;13.30;8.00;;;;;;;11.69;100.00;99665.20;106780;1250;61257;-74
2023/10/14 05:46:49;;;;;;;10.00;7.20;;;;;;;11.77;100.00;99662.95;106120;1251;61289;-73
2023/10/14 05:49:16;;;;;;;13.50;7.60;;;;;;;11.85;100.00;99664.95;106181;1250;73479;-74
2023/10/14 05:51:43;;;;;;;10.60;7.70;;;;;;;11.95;100.00;99666.55;106314;1250;71102;-74
2023/10/14 05:54:11;;;;;;;9.70;7.10;;;;;;;12.04;100.00;99664.45;106466;1254;71798;-74
2023/10/14 05:56:39;;;;;;;11.30;6.90;;;;;;;12.13;100.00;99664.80;106190;1250;61348;-73
2023/10/14 05:59:06;;;;;;;14.70;7.60;;;;;;;12.22;100.00;99666.04;106702;1250;61189;-74
2023/10/14 06:01:36;;;;;;;12.60;7.20;;;;;;;12.32;100.00;99673.05;106366;1250;74544;-73
2023/10/14 06:04:03;;;;;;;8.40;6.90;;;;;;;12.41;100.00;99676.90;106592;1250;71125;-74
2023/10/14 06:06:31;;;;;;;11.40;7.40;;;;;;;12.49;100.00;99671.99;106376;1256;72887;-75
2023/10/14 06:09:00;;;;;;;14.10;7.80;;;;;;;12.57;100.00;99671.14;106218;1250;61156;-75
2023/10/14 06:11:27;;;;;;;9.90;7.40;;;;;;;12.64;100.00;99672.09;106160;1251;61252;-74
2023/10/14 06:13:54;;;;;;;11.30;7.30;;;;;;;12.74;100.00;99674.88;106162;1250;74424;-74
2023/10/14 06:16:20;;;;;;;8.50;7.00;;;;;;;12.83;100.00;99673.42;106848;1250;69988;-74
2023/10/14 06:18:47;;;;;;;8.20;6.90;;;;;;;12.92;100.00;99674.30;106405;1250;72559;-75
2023/10/14 06:21:15;;;;;;;11.60;6.30;;;;;;;13.00;100.00;99670.80;106333;1250;61298;-74
2023/10/14 06:23:47;;;;;;;9.70;7.20;;;;;;;13.10;100.00;99671.63;105521;1255;1002934;-74
2023/10/14 06:26:17;;;;;;;9.30;6.50;;;;;;;13.21;100.00;99674.17;106190;1254;74480;-74
2023/10/14 06:28:45;;;;;;;12.20;7.10;;;;;;;13.28;100.00;99671.37;106833;1250;70073;-73
2023/10/14 06:31:12;;;;;;;14.00;7.10;;;;;;;13.40;100.00;99674.38;106674;1255;70432;-73
2023/10/14 06:33:43;;;;;;;10.90;7.10;;;;;;;13.52;100.00;99668.07;105424;1254;1002823;-74
2023/10/14 06:36:14;;;;;;;9.20;6.40;;;;;;;13.59;100.00;99668.85;106262;1255;61347;-74
2023/10/14 06:38:44;;;;;;;14.00;6.70;;;;;;;13.62;100.00;99668.52;106194;1250;74853;-74
2023/10/14 06:41:13;;;;;;;10.20;6.90;;;;;;;13.66;100.00;99664.45;107421;1251;71420;-74
2023/10/14 06:43:43;;;;;;;11.30;7.60;;;;;;;13.71;100.00;99665.47;106754;1254;72813;-74
2023/10/14 06:46:11;;;;;;;10.60;6.40;;;;;;;13.76;100.00;99662.94;107313;1250;61371;-73
2023/10/14 06:48:38;;;;;;;12.00;7.10;;;;;;;13.81;100.00;99665.03;106538;1250;61221;-73
2023/10/14 06:51:06;;;;;;;12.20;7.10;;;;;;;13.82;100.00;99668.14;107029;1250;74174;-74
2023/10/14 06:53:34;;;;;;;13.80;6.70;;;;;;;13.82;100.00;99667.98;106558;1251;71179;-73
2023/10/14 06:56:01;;;;;;;8.60;6.40;;;;;;;13.87;100.00;99673.02;106114;1251;72827;-75
2023/10/14 06:58:29;;;;;;;9.40;7.40;;;;;;;13.97;100.00;99679.29;106623;1250;61366;-73
2023/10/14 07:00:59;;;;;;;12.70;7.70;;;;;;;14.08;100.00;99673.12;106645;1253;61176;-74
2023/10/14 07:03:28;;;;;;;11.90;7.60;;;;;;;14.19;100.00;99668.19;106236;1254;73556;-74
2023/10/14 07:08:27;;;;;;;8.30;6.40;;;;;;;14.45;100.00;99666.09;106977;1250;72073;-74
2023/10/14 07:10:55;;;;;;;10.50;6.80;;;;;;;14.58;100.00;99659.87;106811;1256;62170;-73
2023/10/14 07:13:23;;;;;;;6.80;6.00;;;;;;;14.71;100.00;99650.76;108315;1250;60573;-74
2023/10/14 07:15:51;;;;;;;11.00;6.90;;;;;;;14.85;100.00;99649.34;107882;1251;74439;-75
2023/10/14 07:18:25;;;;;;;11.80;6.30;;;;;;;14.97;100.00;99647.65;108556;1250;70443;-74
2023/10/14 07:20:57;;;;;;;11.10;7.00;;;;;;;15.13;100.00;99644.91;108503;1250;71691;-74
2023/10/14 07:23:24;;;;;;;13.50;6.60;;;;;;;15.29;100.00;99642.16;108359;1250;59751;-74
2023/10/14 07:25:52;;;;;;;8.80;6.70;;;;;;;15.38;100.00;99639.56;106736;1250;61347;-74
2023/10/14 07:28:19;;;;;;;10.70;6.50;;;;;;;15.47;100.00;99634.52;107095;1250;74543;-74
2023/10/14 07:30:46;;;;;;;11.50;7.00;;;;;;;15.59;100.00;99633.85;107132;1250;71982;-73
2023/10/14 07:33:15;;;;;;;8.60;6.10;;;;;;;15.73;100.00;99628.54;106625;1251;72702;-73
2023/10/14 07:35:42;;;;;;;8.70;6.00;;;;;;;15.87;100.00;99627.59;107008;1256;61277;-73
2023/10/14 07:38:10;;;;;;;17.20;6.70;;;;;;;15.98;100.00;99620.83;107839;1250;61318;-73
2023/10/14 07:40:38;;;;;;;13.20;6.80;;;;;;;16.04;100.00;99611.65;106594;1250;74664;-72
2023/10/14 07:43:12;;;;;;;11.10;6.90;;;;;;;16.09;100.00;99612.78;106160;1255;69486;-74
2023/10/14 07:45:43;;;;;;;11.10;7.20;;;;;;;16.16;100.00;99611.88;106402;1256;72847;-73
2023/10/14 07:48:11;;;;;;;12.20;7.00;;;;;;;16.18;100.00;99604.64;106968;1255;61240;-74
2023/10/14 07:50:40;;;;;;;8.80;6.40;;;;;;;16.23;100.00;99607.20;106009;1250;61379;-74
2023/10/14 07:53:08;;;;;;;13.80;7.60;;;;;;;16.29;100.00;99607.40;106997;1250;76154;-73
2023/10/14 07:55:41;;;;;;;12.00;6.30;;;;;;;16.40;100.00;99601.86;106844;1255;70806;-73
2023/10/14 07:58:10;;;;;;;10.20;6.30;;;;;;;16.51;100.00;99602.96;106947;1256;73190;-73
2023/10/14 08:00:40;;;;;;;15.50;7.80;;;;;;;16.60;100.00;99598.02;106285;1256;61354;-74
2023/10/14 08:03:09;;;;;;;11.00;7.00;;;;;;;16.69;100.00;99597.14;106165;1256;61263;-74
2023/10/14 08:05:38;;;;;;;12.20;6.70;;;;;;;16.71;100.00;99594.91;107318;1250;74538;-73
2023/10/14 08:08:09;;;;;;;8.50;7.00;;;;;;;16.69;100.00;99585.45;106065;1257;70962;-73
2023/10/14 08:10:37;;;;;;;9.10;6.50;;;;;;;16.74;100.00;99588.68;106157;1256;71316;-73
2023/10/14 08:13:04;;;;;;;16.60;7.30;;;;;;;16.87;100.00;99586.55;107920;1255;61267;-74
2023/10/14 08:15:32;;;;;;;9.20;7.10;;;;;;;16.95;100.00;99583.93;106249;1255;61370;-73
2023/10/14 08:18:00;;;;;;;9.60;7.60;;;;;;;17.01;100.00;99582.33;106724;1254;74712;-74
2023/10/14 08:20:28;;;;;;;9.80;6.70;;;;;;;17.11;100.00;99578.39;106534;1251;71069;-75
2023/10/14 08:22:55;;;;;;;13.90;7.40;;;;;;;17.21;100.00;99581.11;106261;1253;72556;-74
2023/10/14 08:25:24;;;;;;;12.20;7.20;;;;;;;17.34;100.00;99580.18;106207;1255;62060;-74
2023/10/14 08:27:53;;;;;;;15.00;7.90;;;;;;;17.42;100.00;99577.04;106621;1251;61305;-75
2023/10/14 08:30:24;;;;;;;17.60;7.20;;;;;;;17.48;100.00;99574.53;107400;1254;74529;-76
2023/10/14 08:32:52;;;;;;;14.90;7.90;;;;;;;17.54;100.00;99568.48;106503;1254;70765;-74
2023/10/14 08:35:19;;;;;;;14.00;7.20;;;;;;;17.62;100.00;99562.83;106641;1255;72754;-74
2023/10/14 08:37:48;;;;;;;19.20;8.50;;;;;;;17.64;100.00;99557.20;106992;1250;61262;-73
2023/10/14 08:40:19;;;;;;;14.80;7.80;;;;;;;17.64;100.00;99550.12;105718;1256;1002896;-74
2023/10/14 08:42:51;;;;;;;13.00;7.70;;;;;;;17.65;100.00;99554.13;106421;1254;74493;-74
2023/10/14 08:45:20;;;;;;;16.90;7.50;;;;;;;17.75;100.00;99545.67;106236;1256;70944;-74
2023/10/14 08:47:51;;;;;;;14.10;7.80;;;;;;;17.90;100.00;99544.63;106192;1251;72395;-74
2023/10/14 08:50:21;;;;;;;11.60;7.30;;;;;;;17.98;100.00;99534.86;106263;1254;61174;-75
2023/10/14 08:52:49;;;;;;;15.00;7.70;;;;;;;18.08;100.00;99535.28;107583;1251;61352;-74
2023/10/14 08:55:21;;;;;;;13.20;7.50;;;;;;;18.18;100.00;99527.85;106208;1250;74501;-75
2023/10/14 08:57:49;;;;;;;16.80;7.40;;;;;;;18.26;100.00;99531.80;106167;1251;71103;-75
2023/10/14 09:00:23;;;;;;;13.80;7.40;;;;;;;18.36;100.00;99527.20;107730;1250;72483;-76
2023/10/14 09:02:51;;;;;;;10.80;6.80;;;;;;;18.52;100.00;99522.75;106152;1255;61354;-76
2023/10/14 09:05:18;;;;;;;8.50;6.20;;;;;;;18.70;100.00;99513.42;106531;1251;61217;-77
2023/10/14 09:07:46;;;;;;;12.10;7.30;;;;;;;18.87;100.00;99512.61;106223;1251;73174;-74
2023/10/14 09:10:15;;;;;;;11.20;6.10;;;;;;;18.97;100.00;99500.38;106181;1255;69960;-75
2023/10/14 09:12:59;;;;;;;16.80;6.80;;;;;;;19.01;100.00;99494.95;106164;1254;74174;-74
2023/10/14 09:15:30;;;;;;;12.10;6.60;;;;;;;19.12;100.00;99488.83;106626;1251;61341;-74
2023/10/14 09:18:00;;;;;;;11.50;6.40;;;;;;;19.26;100.00;99488.84;107422;1251;61270;-75
2023/10/14 09:20:27;;;;;;;20.30;7.40;;;;;;;19.40;100.00;99478.86;106343;1250;74500;-75
2023/10/14 09:23:19;;;;;;;9.90;5.60;;;;;;;19.51;100.00;99479.83;107074;1251;71135;-73
2023/10/14 09:25:56;;;;;;;12.40;6.90;;;;;;;19.51;100.00;99472.18;106278;1256;71897;-74
2023/10/14 09:28:34;;;;;;;13.40;6.40;;;;;;;19.50;100.00;99467.80;106569;1251;61317;-73
2023/10/14 09:31:03;;;;;;;11.60;5.60;;;;;;;19.49;100.00;99464.48;106749;1254;1003168;-75
2023/10/14 09:33:32;;;;;;;18.70;6.90;;;;;;;19.48;100.00;99459.58;106380;1256;73130;-75
2023/10/14 09:36:02;;;;;;;9.10;5.90;;;;;;;19.50;100.00;99455.16;106234;1254;69779;-74
2023/10/14 09:38:32;;;;;;;10.90;5.80;;;;;;;19.58;100.00;99446.77;106209;1256;72754;-74
2023/10/14 09:41:03;;;;;;;14.50;6.30;;;;;;;19.62;100.00;99445.40;107394;1254;61134;-73
2023/10/14 09:43:32;;;;;;;16.30;6.20;;;;;;;19.64;100.00;99444.89;106421;1256;61275;-73
2023/10/14 09:46:00;;;;;;;12.20;6.50;;;;;;;19.65;100.00;99437.69;106604;1256;74456;-74
2023/10/14 09:48:29;;;;;;;9.90;6.50;;;;;;;19.64;100.00;99429.23;106266;1257;69943;-74
2023/10/14 09:51:02;;;;;;;11.80;6.20;;;;;;;19.62;100.00;99430.26;106670;1256;72415;-73
2023/10/14 09:53:34;;;;;;;13.30;6.50;;;;;;;19.61;100.00;99427.30;106539;1256;61270;-74
2023/10/14 09:56:10;;;;;;;10.50;6.00;;;;;;;19.61;100.00;99422.67;107001;1251;60302;-73
2023/10/14 09:58:41;;;;;;;13.30;5.70;;;;;;;19.72;100.00;99420.80;106148;1250;73136;-74
2023/10/14 10:01:12;;;;;;;13.20;7.40;;;;;;;19.92;100.00;99426.48;106638;1251;70860;-73
2023/10/14 10:03:52;;;;;;;11.90;6.70;;;;;;;20.14;100.00;99421.67;106537;1254;72747;-74
2023/10/14 10:06:24;;;;;;;10.90;5.30;;;;;;;20.34;100.00;99411.06;106552;1251;61247;-75
2023/10/14 10:09:09;;;;;;;11.40;4.90;;;;;;;20.46;100.00;99398.00;106177;1254;61220;-74
2023/10/14 10:11:36;;;;;;;11.50;6.20;;;;;;;20.54;100.00;99392.91;106993;1254;74551;-75
2023/10/14 10:14:05;;;;;;;15.40;6.40;;;;;;;20.65;100.00;99390.52;106176;1257;69649;-74
2023/10/14 10:16:33;;;;;;;9.70;5.60;;;;;;;20.84;100.00;99381.55;107135;1251;72747;-74
2023/10/14 10:19:00;;;;;;;12.20;5.70;;;;;;;21.02;100.00;99377.98;106928;1257;61458;-75
2023/10/14 10:21:34;;;;;;;11.80;5.60;;;;;;;21.18;100.00;99373.65;106504;1254;61346;-75
2023/10/14 10:24:09;;;;;;;12.50;5.90;;;;;;;21.36;100.00;99370.93;106421;1254;74507;-73
2023/10/14 10:27:02;;;;;;;6.60;5.10;;;;;;;21.50;100.00;99371.38;106184;1254;69958;-73
2023/10/14 10:29:33;;;;;;;13.20;5.90;;;;;;;21.52;100.00;99365.01;107202;1251;73648;-73
2023/10/14 10:32:07;;;;;;;10.20;5.00;;;;;;;21.54;100.00;99361.27;106218;1250;61343;-73
2023/10/14 10:34:54;;;;;;;9.90;5.70;;;;;;;21.62;100.00;99359.59;106174;1251;61207;-75
2023/10/14 10:37:21;;;;;;;17.70;5.60;;;;;;;21.64;100.00;99351.73;107115;1250;398305;-73
2023/10/14 10:39:50;;;;;;;16.40;5.40;;;;;;;21.69;100.00;99352.17;106677;1251;69105;-74
2023/10/14 10:42:17;;;;;;;10.20;5.30;;;;;;;21.76;100.00;99353.40;106201;1251;72574;-74
2023/10/14 10:44:44;;;;;;;15.00;5.00;;;;;;;21.79;100.00;99349.59;106158;1251;61453;-74
2023/10/14 10:47:12;;;;;;;12.70;5.20;;;;;;;21.79;100.00;99347.79;106586;1255;61218;-74
2023/10/14 10:50:00;;;;;;;12.00;5.20;;;;;;;21.82;100.00;99337.73;106168;1254;74796;-75
2023/10/14 10:52:28;;;;;;;8.90;4.20;;;;;;;21.97;100.00;99327.54;107330;1251;71089;-75
2023/10/14 10:54:58;;;;;;;10.50;5.20;;;;;;;22.09;100.00;99322.88;106659;1254;72546;-75
2023/10/14 10:57:24;;;;;;;13.50;5.20;;;;;;;22.06;100.00;99322.58;107014;1251;60328;-73
2023/10/14 10:59:54;;;;;;;15.00;4.50;;;;;;;22.05;100.00;99325.07;106239;1255;61344;-76
2023/10/14 11:02:21;;;;;;;10.20;5.10;;;;;;;22.06;100.00;99315.27;106477;1255;74551;-74
2023/10/14 11:04:48;;;;;;;10.50;5.00;;;;;;;22.14;100.00;99303.91;106344;1257;71049;-75
2023/10/14 11:07:15;;;;;;;15.80;5.20;;;;;;;22.22;100.00;99298.41;105461;1254;1003645;-74
2023/10/14 11:09:42;;;;;;;13.90;4.80;;;;;;;22.22;100.00;99298.35;106090;1266;61286;-75
2023/10/14 11:12:10;;;;;;;9.00;4.30;;;;;;;22.18;100.00;99296.27;106623;1251;61215;-74
2023/10/14 11:14:37;;;;;;;9.40;5.60;;;;;;;22.12;100.00;99294.64;106169;1254;74394;-75
2023/10/14 11:17:05;;;;;;;12.60;4.70;;;;;;;22.10;100.00;99292.09;106204;1254;71359;-75
2023/10/14 11:19:32;;;;;;;11.30;5.40;;;;;;;22.15;100.00;99297.39;106530;1254;71083;-74
2023/10/14 11:22:00;;;;;;;10.30;4.80;;;;;;;22.15;100.00;99286.67;106363;1251;61316;-75
2023/10/14 11:24:27;;;;;;;14.60;4.80;;;;;;;22.08;100.00;99287.41;106612;1254;61561;-75
2023/10/14 11:26:55;;;;;;;14.70;4.50;;;;;;;22.01;100.00;99276.95;107088;1251;73618;-74
2023/10/14 11:29:25;;;;;;;7.60;4.50;;;;;;;22.08;100.00;99279.55;107446;1251;69619;-74
2023/10/14 11:31:53;;;;;;;13.40;4.80;;;;;;;22.18;100.00;99275.29;106145;1254;72984;-75
2023/10/14 11:34:21;;;;;;;9.80;5.00;;;;;;;22.28;100.00;99281.30;106893;1250;61135;-74
2023/10/14 11:36:50;;;;;;;11.60;4.90;;;;;;;22.33;100.00;99279.10;107283;1250;61285;-75
2023/10/14 11:39:21;;;;;;;10.40;4.20;;;;;;;22.36;100.00;99277.08;106205;1254;74467;-74
2023/10/14 11:41:51;;;;;;;9.00;4.50;;;;;;;22.38;100.00;99266.27;106234;1254;71128;-74
2023/10/14 11:44:19;;;;;;;12.60;5.00;;;;;;;22.48;100.00;99269.93;106149;1253;71418;-74
2023/10/14 11:46:46;;;;;;;15.30;4.60;;;;;;;22.51;100.00;99256.59;106194;1250;61356;-74
2023/10/14 11:49:13;;;;;;;8.50;4.00;;;;;;;22.47;100.00;99254.66;106272;1254;61215;-74
2023/10/14 11:51:44;;;;;;;11.70;5.20;;;;;;;22.41;100.00;99254.27;106799;1251;74428;-72
2023/10/14 11:54:14;;;;;;;13.50;4.60;;;;;;;22.34;100.00;99247.52;106279;1251;71275;-75
2023/10/14 11:56:42;;;;;;;11.90;4.60;;;;;;;22.32;100.00;99248.45;106151;1250;72468;-75